sensor_id;sensor_type;location;lat;lon;timestamp;temperature;humidity
8593;DHT22;4334;49.982;8.398;2022-12-11T00:00:37;-1.80;99.90
8593;DHT22;4334;49.982;8.398;2022-12-11T00:03:04;-1.70;99.90
8593;DHT22;4334;49.982;8.398;2022-12-11T00:05:31;-1.70;99.90
8593;DHT22;4334;49.982;8.398;2022-12-11T00:07:58;-1.80;99.90
8593;DHT22;4334;49.982;8.398;2022-12-11T00:10:25;-1.70;99.90
8593;DHT22;4334;49.982;8.398;2022-12-11T00:12:53;-1.60;99.90
8593;DHT22;4334;49.982;8.398;2022-12-11T00:15:20;-1.50;99.90
8593;DHT22;4334;49.982;8.398;2022-12-11T00:17:47;-1.90;99.90
8593;DHT22;4334;49.982;8.398;2022-12-11T00:20:14;-1.60;99.90
8593;DHT22;4334;49.982;8.398;2022-12-11T00:22:41;-1.60;99.90
8593;DHT22;4334;49.982;8.398;2022-12-11T00:25:08;-1.50;99.90
8593;DHT22;4334;49.982;8.398;2022-12-11T00:27:35;-1.40;99.90
8593;DHT22;4334;49.982;8.398;2022-12-11T00:30:05;-1.40;99.90
8593;DHT22;4334;49.982;8.398;2022-12-11T00:32:32;-1.30;99.90
8593;DHT22;4334;49.982;8.398;2022-12-11T00:34:59;-1.30;99.90
8593;DHT22;4334;49.982;8.398;2022-12-11T00:37:26;-1.20;99.90
8593;DHT22;4334;49.982;8.398;2022-12-11T00:39:53;-1.20;99.90
8593;DHT22;4334;49.982;8.398;2022-12-11T00:42:20;-1.10;99.90
8593;DHT22;4334;49.982;8.398;2022-12-11T00:44:46;-1.30;99.90
8593;DHT22;4334;49.982;8.398;2022-12-11T00:47:15;-1.30;99.90
8593;DHT22;4334;49.982;8.398;2022-12-11T00:49:41;-1.40;99.90
8593;DHT22;4334;49.982;8.398;2022-12-11T00:52:08;-1.40;99.90
8593;DHT22;4334;49.982;8.398;2022-12-11T00:54:35;-1.40;99.90
8593;DHT22;4334;49.982;8.398;2022-12-11T00:57:02;-1.40;99.90
8593;DHT22;4334;49.982;8.398;2022-12-11T00:59:29;-2.20;99.90
8593;DHT22;4334;49.982;8.398;2022-12-11T01:01:56;-1.50;99.90
8593;DHT22;4334;49.982;8.398;2022-12-11T01:04:24;-1.50;99.90
8593;DHT22;4334;49.982;8.398;2022-12-11T01:06:51;-1.50;99.90
8593;DHT22;4334;49.982;8.398;2022-12-11T01:09:18;-1.70;99.90
8593;DHT22;4334;49.982;8.398;2022-12-11T01:12:02;-1.50;99.90
8593;DHT22;4334;49.982;8.398;2022-12-11T01:14:29;-1.40;99.90
8593;DHT22;4334;49.982;8.398;2022-12-11T01:16:56;-1.50;99.90
8593;DHT22;4334;49.982;8.398;2022-12-11T01:19:24;-1.50;99.90
8593;DHT22;4334;49.982;8.398;2022-12-11T01:21:51;-1.50;99.90
8593;DHT22;4334;49.982;8.398;2022-12-11T01:24:18;-1.60;99.90
8593;DHT22;4334;49.982;8.398;2022-12-11T01:26:45;-1.60;99.90
8593;DHT22;4334;49.982;8.398;2022-12-11T01:29:12;-1.50;99.90
8593;DHT22;4334;49.982;8.398;2022-12-11T01:31:39;-1.50;99.90
8593;DHT22;4334;49.982;8.398;2022-12-11T01:34:06;1.70;99.90
8593;DHT22;4334;49.982;8.398;2022-12-11T01:36:34;-1.40;99.90
8593;DHT22;4334;49.982;8.398;2022-12-11T01:39:01;-1.40;99.90
8593;DHT22;4334;49.982;8.398;2022-12-11T01:41:28;-1.40;99.90
8593;DHT22;4334;49.982;8.398;2022-12-11T01:43:57;-1.30;99.90
8593;DHT22;4334;49.982;8.398;2022-12-11T01:46:25;-1.30;99.90
8593;DHT22;4334;49.982;8.398;2022-12-11T01:48:52;-1.30;99.90
8593;DHT22;4334;49.982;8.398;2022-12-11T01:51:19;-0.10;99.90
8593;DHT22;4334;49.982;8.398;2022-12-11T01:53:52;-1.30;99.90
8593;DHT22;4334;49.982;8.398;2022-12-11T01:56:20;-1.40;99.90
8593;DHT22;4334;49.982;8.398;2022-12-11T01:58:51;-1.30;99.90
8593;DHT22;4334;49.982;8.398;2022-12-11T02:01:23;-1.30;99.90
8593;DHT22;4334;49.982;8.398;2022-12-11T02:03:52;-2.50;99.90
8593;DHT22;4334;49.982;8.398;2022-12-11T02:06:34;0.10;99.90
8593;DHT22;4334;49.982;8.398;2022-12-11T02:09:03;-1.20;99.90
8593;DHT22;4334;49.982;8.398;2022-12-11T02:11:37;-1.20;99.90
8593;DHT22;4334;49.982;8.398;2022-12-11T02:14:12;-1.10;99.90
8593;DHT22;4334;49.982;8.398;2022-12-11T02:16:45;-1.00;99.90
8593;DHT22;4334;49.982;8.398;2022-12-11T02:19:24;-1.10;99.90
8593;DHT22;4334;49.982;8.398;2022-12-11T02:21:55;-0.60;99.90
8593;DHT22;4334;49.982;8.398;2022-12-11T02:24:46;-1.10;99.90
8593;DHT22;4334;49.982;8.398;2022-12-11T02:27:26;1.10;99.90
8593;DHT22;4334;49.982;8.398;2022-12-11T02:30:00;-1.10;99.90
8593;DHT22;4334;49.982;8.398;2022-12-11T02:32:32;-1.10;99.90
8593;DHT22;4334;49.982;8.398;2022-12-11T02:35:06;-1.10;99.90
8593;DHT22;4334;49.982;8.398;2022-12-11T02:37:37;-1.10;99.90
8593;DHT22;4334;49.982;8.398;2022-12-11T02:40:08;-1.10;99.90
8593;DHT22;4334;49.982;8.398;2022-12-11T02:42:38;-2.60;99.90
8593;DHT22;4334;49.982;8.398;2022-12-11T02:45:09;-1.30;99.90
8593;DHT22;4334;49.982;8.398;2022-12-11T02:47:37;-1.30;99.90
8593;DHT22;4334;49.982;8.398;2022-12-11T02:50:08;-1.40;99.90
8593;DHT22;4334;49.982;8.398;2022-12-11T02:52:38;-1.30;99.90
8593;DHT22;4334;49.982;8.398;2022-12-11T02:55:08;-1.20;99.90
8593;DHT22;4334;49.982;8.398;2022-12-11T02:57:39;-0.60;99.90
8593;DHT22;4334;49.982;8.398;2022-12-11T03:00:12;-1.20;99.90
8593;DHT22;4334;49.982;8.398;2022-12-11T03:02:41;-1.20;99.90
8593;DHT22;4334;49.982;8.398;2022-12-11T03:05:09;-1.20;99.90
8593;DHT22;4334;49.982;8.398;2022-12-11T03:07:38;-1.20;99.90
8593;DHT22;4334;49.982;8.398;2022-12-11T03:10:07;-1.10;99.90
8593;DHT22;4334;49.982;8.398;2022-12-11T03:12:38;-1.10;99.90
8593;DHT22;4334;49.982;8.398;2022-12-11T03:15:09;-1.10;99.90
8593;DHT22;4334;49.982;8.398;2022-12-11T03:17:44;-1.10;99.90
8593;DHT22;4334;49.982;8.398;2022-12-11T03:20:18;-1.10;99.90
8593;DHT22;4334;49.982;8.398;2022-12-11T03:22:52;-0.20;99.90
8593;DHT22;4334;49.982;8.398;2022-12-11T03:25:24;-1.10;99.90
8593;DHT22;4334;49.982;8.398;2022-12-11T03:27:55;-1.00;99.90
8593;DHT22;4334;49.982;8.398;2022-12-11T03:30:26;-1.00;99.90
8593;DHT22;4334;49.982;8.398;2022-12-11T03:32:57;-1.00;99.90
8593;DHT22;4334;49.982;8.398;2022-12-11T03:35:26;-1.00;99.90
8593;DHT22;4334;49.982;8.398;2022-12-11T03:37:57;-0.80;99.90
8593;DHT22;4334;49.982;8.398;2022-12-11T03:40:28;-0.90;99.90
8593;DHT22;4334;49.982;8.398;2022-12-11T03:42:57;-0.90;99.90
8593;DHT22;4334;49.982;8.398;2022-12-11T03:45:27;2.40;99.90
8593;DHT22;4334;49.982;8.398;2022-12-11T03:47:57;-0.90;99.90
8593;DHT22;4334;49.982;8.398;2022-12-11T03:50:27;-0.90;99.90
8593;DHT22;4334;49.982;8.398;2022-12-11T03:52:56;-0.90;99.90
8593;DHT22;4334;49.982;8.398;2022-12-11T03:55:24;-0.90;99.90
8593;DHT22;4334;49.982;8.398;2022-12-11T03:57:52;-1.00;99.90
8593;DHT22;4334;49.982;8.398;2022-12-11T04:00:19;-0.90;99.90
8593;DHT22;4334;49.982;8.398;2022-12-11T04:02:48;-0.90;99.90
8593;DHT22;4334;49.982;8.398;2022-12-11T04:05:35;-0.90;99.90
8593;DHT22;4334;49.982;8.398;2022-12-11T04:08:02;-0.90;99.90
8593;DHT22;4334;49.982;8.398;2022-12-11T04:10:29;-0.70;99.90
8593;DHT22;4334;49.982;8.398;2022-12-11T04:12:56;-0.90;99.90
8593;DHT22;4334;49.982;8.398;2022-12-11T04:15:23;-0.80;99.90
8593;DHT22;4334;49.982;8.398;2022-12-11T04:17:50;-0.80;99.90
8593;DHT22;4334;49.982;8.398;2022-12-11T04:20:30;-0.90;99.90
8593;DHT22;4334;49.982;8.398;2022-12-11T04:23:30;-0.90;99.90
8593;DHT22;4334;49.982;8.398;2022-12-11T04:26:16;-0.90;99.90
8593;DHT22;4334;49.982;8.398;2022-12-11T04:28:45;-0.90;99.90
8593;DHT22;4334;49.982;8.398;2022-12-11T04:31:13;-0.90;99.90
8593;DHT22;4334;49.982;8.398;2022-12-11T04:33:41;-0.90;99.90
8593;DHT22;4334;49.982;8.398;2022-12-11T04:36:10;-0.90;99.90
8593;DHT22;4334;49.982;8.398;2022-12-11T04:38:37;-0.90;99.90
8593;DHT22;4334;49.982;8.398;2022-12-11T04:41:06;-0.90;99.90
8593;DHT22;4334;49.982;8.398;2022-12-11T04:43:33;-0.80;99.90
8593;DHT22;4334;49.982;8.398;2022-12-11T04:46:02;-0.80;99.90
8593;DHT22;4334;49.982;8.398;2022-12-11T04:48:29;-0.90;99.90
8593;DHT22;4334;49.982;8.398;2022-12-11T04:50:57;-0.90;99.90
8593;DHT22;4334;49.982;8.398;2022-12-11T04:53:24;-0.90;99.90
8593;DHT22;4334;49.982;8.398;2022-12-11T04:55:51;-0.80;99.90
8593;DHT22;4334;49.982;8.398;2022-12-11T04:58:18;-0.90;99.90
8593;DHT22;4334;49.982;8.398;2022-12-11T05:00:45;-0.90;99.90
8593;DHT22;4334;49.982;8.398;2022-12-11T05:03:12;-0.90;99.90
8593;DHT22;4334;49.982;8.398;2022-12-11T05:05:39;-1.00;99.90
8593;DHT22;4334;49.982;8.398;2022-12-11T05:08:08;-0.90;99.90
8593;DHT22;4334;49.982;8.398;2022-12-11T05:10:35;-0.70;99.90
8593;DHT22;4334;49.982;8.398;2022-12-11T05:13:02;-0.70;99.90
8593;DHT22;4334;49.982;8.398;2022-12-11T05:15:29;-0.80;99.90
8593;DHT22;4334;49.982;8.398;2022-12-11T05:17:55;-0.90;99.90
8593;DHT22;4334;49.982;8.398;2022-12-11T05:20:22;-0.90;99.90
8593;DHT22;4334;49.982;8.398;2022-12-11T05:22:49;-0.90;99.90
8593;DHT22;4334;49.982;8.398;2022-12-11T05:25:17;-0.90;99.90
8593;DHT22;4334;49.982;8.398;2022-12-11T05:27:44;1.10;99.90
8593;DHT22;4334;49.982;8.398;2022-12-11T05:30:11;-1.00;99.90
8593;DHT22;4334;49.982;8.398;2022-12-11T05:32:38;-1.00;99.90
8593;DHT22;4334;49.982;8.398;2022-12-11T05:35:06;-1.10;99.90
8593;DHT22;4334;49.982;8.398;2022-12-11T05:37:33;-1.00;99.90
8593;DHT22;4334;49.982;8.398;2022-12-11T05:40:00;-0.70;99.90
8593;DHT22;4334;49.982;8.398;2022-12-11T05:42:28;-1.00;99.90
8593;DHT22;4334;49.982;8.398;2022-12-11T05:44:55;-1.00;99.90
8593;DHT22;4334;49.982;8.398;2022-12-11T05:47:22;-1.10;99.90
8593;DHT22;4334;49.982;8.398;2022-12-11T05:49:48;-1.10;99.90
8593;DHT22;4334;49.982;8.398;2022-12-11T05:52:16;-1.80;99.90
8593;DHT22;4334;49.982;8.398;2022-12-11T05:54:43;-1.10;99.90
8593;DHT22;4334;49.982;8.398;2022-12-11T05:57:09;-1.10;99.90
8593;DHT22;4334;49.982;8.398;2022-12-11T05:59:38;-1.10;99.90
8593;DHT22;4334;49.982;8.398;2022-12-11T06:02:05;-1.10;99.90
8593;DHT22;4334;49.982;8.398;2022-12-11T06:04:32;-1.10;99.90
8593;DHT22;4334;49.982;8.398;2022-12-11T06:06:59;-1.10;99.90
8593;DHT22;4334;49.982;8.398;2022-12-11T06:09:26;-1.10;99.90
8593;DHT22;4334;49.982;8.398;2022-12-11T06:11:53;-1.10;99.90
8593;DHT22;4334;49.982;8.398;2022-12-11T06:14:19;-1.20;99.90
8593;DHT22;4334;49.982;8.398;2022-12-11T06:16:48;-1.10;99.90
8593;DHT22;4334;49.982;8.398;2022-12-11T06:19:16;-1.10;99.90
8593;DHT22;4334;49.982;8.398;2022-12-11T06:21:44;-1.20;99.90
8593;DHT22;4334;49.982;8.398;2022-12-11T06:24:13;-1.20;99.90
8593;DHT22;4334;49.982;8.398;2022-12-11T06:26:40;-1.10;99.90
8593;DHT22;4334;49.982;8.398;2022-12-11T06:29:07;-1.10;99.90
8593;DHT22;4334;49.982;8.398;2022-12-11T06:31:34;-0.90;99.90
8593;DHT22;4334;49.982;8.398;2022-12-11T06:34:03;-1.10;99.90
8593;DHT22;4334;49.982;8.398;2022-12-11T06:36:30;-1.10;99.90
8593;DHT22;4334;49.982;8.398;2022-12-11T06:38:57;-1.00;99.90
8593;DHT22;4334;49.982;8.398;2022-12-11T06:41:24;-1.00;99.90
8593;DHT22;4334;49.982;8.398;2022-12-11T06:43:50;-0.90;99.90
8593;DHT22;4334;49.982;8.398;2022-12-11T06:46:18;-0.90;99.90
8593;DHT22;4334;49.982;8.398;2022-12-11T06:48:46;-0.90;99.90
8593;DHT22;4334;49.982;8.398;2022-12-11T06:51:17;-0.90;99.90
8593;DHT22;4334;49.982;8.398;2022-12-11T06:53:44;-0.90;99.90
8593;DHT22;4334;49.982;8.398;2022-12-11T06:56:13;-0.70;99.90
8593;DHT22;4334;49.982;8.398;2022-12-11T06:58:41;-1.00;99.90
8593;DHT22;4334;49.982;8.398;2022-12-11T07:01:14;1.40;99.90
8593;DHT22;4334;49.982;8.398;2022-12-11T07:03:42;-1.00;99.90
8593;DHT22;4334;49.982;8.398;2022-12-11T07:06:09;-0.90;99.90
8593;DHT22;4334;49.982;8.398;2022-12-11T07:08:37;-1.20;99.90
8593;DHT22;4334;49.982;8.398;2022-12-11T07:11:05;-0.90;99.90
8593;DHT22;4334;49.982;8.398;2022-12-11T07:13:32;-1.00;99.90
8593;DHT22;4334;49.982;8.398;2022-12-11T07:16:00;-0.90;99.90
8593;DHT22;4334;49.982;8.398;2022-12-11T07:18:29;-0.90;99.90
8593;DHT22;4334;49.982;8.398;2022-12-11T07:20:57;-0.80;99.90
8593;DHT22;4334;49.982;8.398;2022-12-11T07:23:25;-0.80;99.90
8593;DHT22;4334;49.982;8.398;2022-12-11T07:25:54;-0.90;99.90
8593;DHT22;4334;49.982;8.398;2022-12-11T07:28:21;-0.80;99.90
8593;DHT22;4334;49.982;8.398;2022-12-11T07:30:47;0.30;99.90
8593;DHT22;4334;49.982;8.398;2022-12-11T07:33:15;-0.70;99.90
8593;DHT22;4334;49.982;8.398;2022-12-11T07:35:42;-0.70;99.90
8593;DHT22;4334;49.982;8.398;2022-12-11T07:38:09;-0.70;99.90
8593;DHT22;4334;49.982;8.398;2022-12-11T07:40:36;-0.70;99.90
8593;DHT22;4334;49.982;8.398;2022-12-11T07:43:05;0.80;99.90
8593;DHT22;4334;49.982;8.398;2022-12-11T07:45:32;1.10;99.90
8593;DHT22;4334;49.982;8.398;2022-12-11T07:47:59;-0.60;99.90
8593;DHT22;4334;49.982;8.398;2022-12-11T07:50:26;-0.60;99.90
8593;DHT22;4334;49.982;8.398;2022-12-11T07:52:53;-0.50;99.90
8593;DHT22;4334;49.982;8.398;2022-12-11T07:55:20;-0.60;99.90
8593;DHT22;4334;49.982;8.398;2022-12-11T07:57:47;-0.60;99.90
8593;DHT22;4334;49.982;8.398;2022-12-11T08:00:16;-0.60;99.90
8593;DHT22;4334;49.982;8.398;2022-12-11T08:02:43;-0.50;99.90
8593;DHT22;4334;49.982;8.398;2022-12-11T08:05:09;-0.40;99.90
8593;DHT22;4334;49.982;8.398;2022-12-11T08:07:37;-0.40;99.90
8593;DHT22;4334;49.982;8.398;2022-12-11T08:10:05;0.20;99.90
8593;DHT22;4334;49.982;8.398;2022-12-11T08:12:32;-0.20;99.90
8593;DHT22;4334;49.982;8.398;2022-12-11T08:14:58;-0.30;99.90
8593;DHT22;4334;49.982;8.398;2022-12-11T08:17:27;-0.30;99.90
8593;DHT22;4334;49.982;8.398;2022-12-11T08:19:54;-0.30;99.90
8593;DHT22;4334;49.982;8.398;2022-12-11T08:22:20;-0.20;99.90
8593;DHT22;4334;49.982;8.398;2022-12-11T08:24:47;-0.10;99.90
8593;DHT22;4334;49.982;8.398;2022-12-11T08:27:14;-0.10;99.90
8593;DHT22;4334;49.982;8.398;2022-12-11T08:29:41;-0.30;99.90
8593;DHT22;4334;49.982;8.398;2022-12-11T08:32:10;1.60;99.90
8593;DHT22;4334;49.982;8.398;2022-12-11T08:34:39;-0.20;99.90
8593;DHT22;4334;49.982;8.398;2022-12-11T08:37:06;-0.10;99.90
8593;DHT22;4334;49.982;8.398;2022-12-11T08:39:33;-0.20;99.90
8593;DHT22;4334;49.982;8.398;2022-12-11T08:42:00;1.90;99.90
8593;DHT22;4334;49.982;8.398;2022-12-11T08:44:30;-0.20;99.90
8593;DHT22;4334;49.982;8.398;2022-12-11T08:46:57;-0.10;99.90
8593;DHT22;4334;49.982;8.398;2022-12-11T08:49:25;-0.30;99.90
8593;DHT22;4334;49.982;8.398;2022-12-11T08:51:53;-0.30;99.90
8593;DHT22;4334;49.982;8.398;2022-12-11T08:54:20;-0.20;99.90
8593;DHT22;4334;49.982;8.398;2022-12-11T08:56:47;-0.20;99.90
8593;DHT22;4334;49.982;8.398;2022-12-11T08:59:16;-0.10;99.90
8593;DHT22;4334;49.982;8.398;2022-12-11T09:01:43;-0.20;99.90
8593;DHT22;4334;49.982;8.398;2022-12-11T09:04:10;-0.20;99.90
8593;DHT22;4334;49.982;8.398;2022-12-11T09:06:37;-0.10;99.90
8593;DHT22;4334;49.982;8.398;2022-12-11T09:09:05;0.00;99.90
8593;DHT22;4334;49.982;8.398;2022-12-11T09:11:34;0.20;99.90
8593;DHT22;4334;49.982;8.398;2022-12-11T09:14:03;0.30;99.90
8593;DHT22;4334;49.982;8.398;2022-12-11T09:16:31;0.40;99.90
8593;DHT22;4334;49.982;8.398;2022-12-11T09:18:59;0.40;99.90
8593;DHT22;4334;49.982;8.398;2022-12-11T09:21:28;0.50;99.90
8593;DHT22;4334;49.982;8.398;2022-12-11T09:23:57;0.20;99.90
8593;DHT22;4334;49.982;8.398;2022-12-11T09:26:26;0.50;99.90
8593;DHT22;4334;49.982;8.398;2022-12-11T09:28:54;0.50;99.90
8593;DHT22;4334;49.982;8.398;2022-12-11T09:31:23;1.10;99.90
8593;DHT22;4334;49.982;8.398;2022-12-11T09:33:52;0.40;99.90
8593;DHT22;4334;49.982;8.398;2022-12-11T09:36:20;0.50;99.90
8593;DHT22;4334;49.982;8.398;2022-12-11T09:38:47;1.80;99.90
8593;DHT22;4334;49.982;8.398;2022-12-11T09:41:31;0.10;99.90
8593;DHT22;4334;49.982;8.398;2022-12-11T09:44:14;-0.60;99.90
8593;DHT22;4334;49.982;8.398;2022-12-11T09:46:42;0.20;99.90
8593;DHT22;4334;49.982;8.398;2022-12-11T09:49:21;0.30;99.90
8593;DHT22;4334;49.982;8.398;2022-12-11T09:51:57;0.50;99.90
8593;DHT22;4334;49.982;8.398;2022-12-11T09:54:26;0.50;99.90
8593;DHT22;4334;49.982;8.398;2022-12-11T09:56:58;0.50;99.90
8593;DHT22;4334;49.982;8.398;2022-12-11T09:59:36;0.60;99.90
8593;DHT22;4334;49.982;8.398;2022-12-11T10:02:19;0.50;99.90
8593;DHT22;4334;49.982;8.398;2022-12-11T10:04:54;0.50;99.90
8593;DHT22;4334;49.982;8.398;2022-12-11T10:07:32;0.50;99.90
8593;DHT22;4334;49.982;8.398;2022-12-11T10:10:07;0.60;99.90
8593;DHT22;4334;49.982;8.398;2022-12-11T10:12:43;0.60;99.90
8593;DHT22;4334;49.982;8.398;2022-12-11T10:15:25;0.60;99.90
8593;DHT22;4334;49.982;8.398;2022-12-11T10:17:59;0.40;99.90
8593;DHT22;4334;49.982;8.398;2022-12-11T10:20:29;0.40;99.90
8593;DHT22;4334;49.982;8.398;2022-12-11T10:23:00;0.40;99.90
8593;DHT22;4334;49.982;8.398;2022-12-11T10:25:30;0.30;99.90
8593;DHT22;4334;49.982;8.398;2022-12-11T10:27:59;0.40;99.90
8593;DHT22;4334;49.982;8.398;2022-12-11T10:30:36;0.40;99.90
8593;DHT22;4334;49.982;8.398;2022-12-11T10:33:13;0.50;99.90
8593;DHT22;4334;49.982;8.398;2022-12-11T10:35:48;0.40;99.90
8593;DHT22;4334;49.982;8.398;2022-12-11T10:38:19;0.40;99.90
8593;DHT22;4334;49.982;8.398;2022-12-11T10:40:49;0.40;99.90
8593;DHT22;4334;49.982;8.398;2022-12-11T10:43:18;0.40;99.90
8593;DHT22;4334;49.982;8.398;2022-12-11T10:45:51;0.50;99.90
8593;DHT22;4334;49.982;8.398;2022-12-11T10:48:19;0.50;99.90
8593;DHT22;4334;49.982;8.398;2022-12-11T10:50:56;0.50;99.90
8593;DHT22;4334;49.982;8.398;2022-12-11T10:53:23;0.60;99.90
8593;DHT22;4334;49.982;8.398;2022-12-11T10:55:50;0.60;99.90
8593;DHT22;4334;49.982;8.398;2022-12-11T10:58:21;0.70;99.90
8593;DHT22;4334;49.982;8.398;2022-12-11T11:01:02;0.80;99.90
8593;DHT22;4334;49.982;8.398;2022-12-11T11:03:29;1.00;99.90
8593;DHT22;4334;49.982;8.398;2022-12-11T11:06:05;1.10;99.90
8593;DHT22;4334;49.982;8.398;2022-12-11T11:08:41;1.10;99.90
8593;DHT22;4334;49.982;8.398;2022-12-11T11:11:20;1.00;99.90
8593;DHT22;4334;49.982;8.398;2022-12-11T11:13:50;1.20;99.90
8593;DHT22;4334;49.982;8.398;2022-12-11T11:16:19;3.50;99.90
8593;DHT22;4334;49.982;8.398;2022-12-11T11:18:52;1.00;99.90
8593;DHT22;4334;49.982;8.398;2022-12-11T11:21:21;1.00;99.90
8593;DHT22;4334;49.982;8.398;2022-12-11T11:23:50;1.30;99.90
8593;DHT22;4334;49.982;8.398;2022-12-11T11:26:17;1.40;99.90
8593;DHT22;4334;49.982;8.398;2022-12-11T11:28:47;1.40;99.90
8593;DHT22;4334;49.982;8.398;2022-12-11T11:31:16;1.40;99.90
8593;DHT22;4334;49.982;8.398;2022-12-11T11:33:50;1.40;99.90
8593;DHT22;4334;49.982;8.398;2022-12-11T11:36:20;1.30;99.90
8593;DHT22;4334;49.982;8.398;2022-12-11T11:38:49;1.30;99.90
8593;DHT22;4334;49.982;8.398;2022-12-11T11:41:26;1.50;99.90
8593;DHT22;4334;49.982;8.398;2022-12-11T11:43:57;1.50;99.90
8593;DHT22;4334;49.982;8.398;2022-12-11T11:46:29;1.60;99.90
8593;DHT22;4334;49.982;8.398;2022-12-11T11:49:09;1.70;99.90
8593;DHT22;4334;49.982;8.398;2022-12-11T11:51:40;2.90;99.90
8593;DHT22;4334;49.982;8.398;2022-12-11T11:54:21;1.70;99.90
8593;DHT22;4334;49.982;8.398;2022-12-11T11:56:51;1.20;99.90
8593;DHT22;4334;49.982;8.398;2022-12-11T11:59:23;1.40;99.90
8593;DHT22;4334;49.982;8.398;2022-12-11T12:01:55;1.40;99.90
8593;DHT22;4334;49.982;8.398;2022-12-11T12:04:22;1.40;99.90
8593;DHT22;4334;49.982;8.398;2022-12-11T12:07:01;1.40;99.90
8593;DHT22;4334;49.982;8.398;2022-12-11T12:09:40;1.30;99.90
8593;DHT22;4334;49.982;8.398;2022-12-11T12:12:16;1.20;99.90
8593;DHT22;4334;49.982;8.398;2022-12-11T12:14:59;1.10;99.90
8593;DHT22;4334;49.982;8.398;2022-12-11T12:17:36;1.10;99.90
8593;DHT22;4334;49.982;8.398;2022-12-11T12:20:13;1.10;99.90
8593;DHT22;4334;49.982;8.398;2022-12-11T12:25:38;0.90;99.90
8593;DHT22;4334;49.982;8.398;2022-12-11T12:28:15;2.40;99.90
8593;DHT22;4334;49.982;8.398;2022-12-11T12:30:58;0.90;99.90
8593;DHT22;4334;49.982;8.398;2022-12-11T12:33:37;0.90;99.90
8593;DHT22;4334;49.982;8.398;2022-12-11T12:36:15;1.00;99.90
8593;DHT22;4334;49.982;8.398;2022-12-11T12:38:51;0.90;99.90
8593;DHT22;4334;49.982;8.398;2022-12-11T12:41:21;1.00;99.90
8593;DHT22;4334;49.982;8.398;2022-12-11T12:44:12;1.00;99.90
8593;DHT22;4334;49.982;8.398;2022-12-11T12:46:50;0.90;99.90
8593;DHT22;4334;49.982;8.398;2022-12-11T12:49:31;1.00;99.90
8593;DHT22;4334;49.982;8.398;2022-12-11T12:52:01;0.90;99.90
8593;DHT22;4334;49.982;8.398;2022-12-11T12:54:29;1.00;99.90
8593;DHT22;4334;49.982;8.398;2022-12-11T12:56:57;1.00;99.90
8593;DHT22;4334;49.982;8.398;2022-12-11T12:59:26;1.00;99.90
8593;DHT22;4334;49.982;8.398;2022-12-11T13:01:55;0.90;99.90
8593;DHT22;4334;49.982;8.398;2022-12-11T13:04:39;0.90;99.90
8593;DHT22;4334;49.982;8.398;2022-12-11T13:07:17;0.90;99.90
8593;DHT22;4334;49.982;8.398;2022-12-11T13:09:55;1.90;99.90
8593;DHT22;4334;49.982;8.398;2022-12-11T13:12:38;0.90;99.90
8593;DHT22;4334;49.982;8.398;2022-12-11T13:15:22;1.10;99.90
8593;DHT22;4334;49.982;8.398;2022-12-11T13:17:53;1.00;99.90
8593;DHT22;4334;49.982;8.398;2022-12-11T13:20:23;1.00;99.90
8593;DHT22;4334;49.982;8.398;2022-12-11T13:22:55;0.90;99.90
8593;DHT22;4334;49.982;8.398;2022-12-11T13:25:26;1.00;99.90
8593;DHT22;4334;49.982;8.398;2022-12-11T13:28:04;0.90;99.90
8593;DHT22;4334;49.982;8.398;2022-12-11T13:30:31;1.20;99.90
8593;DHT22;4334;49.982;8.398;2022-12-11T13:33:02;0.70;99.90
8593;DHT22;4334;49.982;8.398;2022-12-11T13:35:32;0.70;99.90
8593;DHT22;4334;49.982;8.398;2022-12-11T13:38:03;0.80;99.90
8593;DHT22;4334;49.982;8.398;2022-12-11T13:40:38;0.90;99.90
8593;DHT22;4334;49.982;8.398;2022-12-11T13:43:08;1.00;99.90
8593;DHT22;4334;49.982;8.398;2022-12-11T13:45:45;1.00;99.90
8593;DHT22;4334;49.982;8.398;2022-12-11T13:48:18;0.90;99.90
8593;DHT22;4334;49.982;8.398;2022-12-11T13:50:49;0.90;99.90
8593;DHT22;4334;49.982;8.398;2022-12-11T13:53:18;0.80;99.90
8593;DHT22;4334;49.982;8.398;2022-12-11T13:55:54;0.90;99.90
8593;DHT22;4334;49.982;8.398;2022-12-11T13:58:22;0.80;99.90
8593;DHT22;4334;49.982;8.398;2022-12-11T14:00:58;3.10;99.90
8593;DHT22;4334;49.982;8.398;2022-12-11T14:03:29;0.80;99.90
8593;DHT22;4334;49.982;8.398;2022-12-11T14:05:57;0.90;99.90
8593;DHT22;4334;49.982;8.398;2022-12-11T14:08:31;0.80;99.90
8593;DHT22;4334;49.982;8.398;2022-12-11T14:10:59;0.70;99.90
8593;DHT22;4334;49.982;8.398;2022-12-11T14:13:30;0.80;99.90
8593;DHT22;4334;49.982;8.398;2022-12-11T14:15:59;0.80;99.90
8593;DHT22;4334;49.982;8.398;2022-12-11T14:18:28;0.80;99.90
8593;DHT22;4334;49.982;8.398;2022-12-11T14:20:59;0.80;99.90
8593;DHT22;4334;49.982;8.398;2022-12-11T14:23:28;0.80;99.90
8593;DHT22;4334;49.982;8.398;2022-12-11T14:25:57;0.70;99.90
8593;DHT22;4334;49.982;8.398;2022-12-11T14:28:26;0.70;99.90
8593;DHT22;4334;49.982;8.398;2022-12-11T14:30:58;0.70;99.90
8593;DHT22;4334;49.982;8.398;2022-12-11T14:33:28;0.70;99.90
8593;DHT22;4334;49.982;8.398;2022-12-11T14:35:58;0.70;99.90
8593;DHT22;4334;49.982;8.398;2022-12-11T14:38:29;0.60;99.90
8593;DHT22;4334;49.982;8.398;2022-12-11T14:41:02;0.50;99.90
8593;DHT22;4334;49.982;8.398;2022-12-11T14:43:36;0.60;99.90
8593;DHT22;4334;49.982;8.398;2022-12-11T14:46:08;0.70;99.90
8593;DHT22;4334;49.982;8.398;2022-12-11T14:48:41;0.60;99.90
8593;DHT22;4334;49.982;8.398;2022-12-11T14:51:14;0.60;99.90
8593;DHT22;4334;49.982;8.398;2022-12-11T14:53:44;0.50;99.90
8593;DHT22;4334;49.982;8.398;2022-12-11T14:56:16;0.50;99.90
8593;DHT22;4334;49.982;8.398;2022-12-11T14:58:48;0.50;99.90
8593;DHT22;4334;49.982;8.398;2022-12-11T15:01:24;0.50;99.90
8593;DHT22;4334;49.982;8.398;2022-12-11T15:04:02;0.50;99.90
8593;DHT22;4334;49.982;8.398;2022-12-11T15:06:42;0.50;99.90
8593;DHT22;4334;49.982;8.398;2022-12-11T15:09:16;0.40;99.90
8593;DHT22;4334;49.982;8.398;2022-12-11T15:11:44;2.20;99.90
8593;DHT22;4334;49.982;8.398;2022-12-11T15:14:12;0.80;99.90
8593;DHT22;4334;49.982;8.398;2022-12-11T15:16:41;1.90;99.90
8593;DHT22;4334;49.982;8.398;2022-12-11T15:19:17;0.70;99.90
8593;DHT22;4334;49.982;8.398;2022-12-11T15:21:46;0.60;99.90
8593;DHT22;4334;49.982;8.398;2022-12-11T15:24:26;0.50;99.90
8593;DHT22;4334;49.982;8.398;2022-12-11T15:26:56;0.40;99.90
8593;DHT22;4334;49.982;8.398;2022-12-11T15:29:29;0.40;99.90
8593;DHT22;4334;49.982;8.398;2022-12-11T15:32:01;0.40;99.90
8593;DHT22;4334;49.982;8.398;2022-12-11T15:34:33;0.40;99.90
8593;DHT22;4334;49.982;8.398;2022-12-11T15:37:01;0.50;99.90
8593;DHT22;4334;49.982;8.398;2022-12-11T15:39:30;0.40;99.90
8593;DHT22;4334;49.982;8.398;2022-12-11T15:41:57;0.40;99.90
8593;DHT22;4334;49.982;8.398;2022-12-11T15:44:24;0.40;99.90
8593;DHT22;4334;49.982;8.398;2022-12-11T15:46:51;0.40;99.90
8593;DHT22;4334;49.982;8.398;2022-12-11T15:49:18;-2.20;99.90
8593;DHT22;4334;49.982;8.398;2022-12-11T15:51:49;0.40;99.90
8593;DHT22;4334;49.982;8.398;2022-12-11T15:54:19;0.30;99.90
8593;DHT22;4334;49.982;8.398;2022-12-11T15:56:46;0.30;99.90
8593;DHT22;4334;49.982;8.398;2022-12-11T15:59:14;0.30;99.90
8593;DHT22;4334;49.982;8.398;2022-12-11T16:01:41;0.30;99.90
8593;DHT22;4334;49.982;8.398;2022-12-11T16:04:08;0.30;99.90
8593;DHT22;4334;49.982;8.398;2022-12-11T16:06:36;0.30;99.90
8593;DHT22;4334;49.982;8.398;2022-12-11T16:09:09;1.90;99.90
8593;DHT22;4334;49.982;8.398;2022-12-11T16:11:38;2.30;99.90
8593;DHT22;4334;49.982;8.398;2022-12-11T16:14:04;0.40;99.90
8593;DHT22;4334;49.982;8.398;2022-12-11T16:16:31;0.40;99.90
8593;DHT22;4334;49.982;8.398;2022-12-11T16:18:58;0.40;99.90
8593;DHT22;4334;49.982;8.398;2022-12-11T16:21:26;0.40;99.90
8593;DHT22;4334;49.982;8.398;2022-12-11T16:23:52;0.40;99.90
8593;DHT22;4334;49.982;8.398;2022-12-11T16:26:19;0.30;99.90
8593;DHT22;4334;49.982;8.398;2022-12-11T16:28:47;0.30;99.90
8593;DHT22;4334;49.982;8.398;2022-12-11T16:31:14;0.30;99.90